Tuckerton Boro, New Jersey
Current Conditions -  °F | °C
As of 7:54 PM on Tuesday 25 Nov 2014 (Local Time) from KACY Reporting Station
Clear Clear  
Wind Chill: 49°   Ceiling: Unl
Heat Index: 49°   Visibility: 10mi
Dew Point: 36°   Wind: 3mph
Humidity: 61%   Direction: 230°SW
Pressure: 30.13"   Gusts: NA
Location:  39.6187°N, 74.3847°W
Report Text: KACY 260054Z 23003KT 10SM CLR 09/02 A3013 RMK AO2 SLP202 T00940022
Loading
Personal Weather Stations






























Interactive Weather Map New forecast layout! Learn more

10-Day Weather Forecast

Advertisements
Track Severe Weather on mobile